Terminal Aerodrome Forecast
Issued by NWS Sioux Falls, SD

Home | Current Version | Previous Version | Graphics & Text | Print | Product List | Glossary On
Versions: 1 2 3 4 5 6 7 8 9 10 11 12 13 14
549
FTUS43 KFSD 201120
TAFFSD
TAF
KFSD 201120Z 2012/2112 18009KT P6SM SCT250 WS020/19040KT
     FM201300 18015G27KT P6SM SCT250
     FM201800 18020G32KT P6SM BKN250
     FM202300 17020G30KT P6SM SCT120
     FM210300 18018G29KT P6SM SCT040 BKN100
     FM210600 18017G25KT P6SM OVC040=

USA.gov is the U.S. government's official web portal to all federal, state and local government web resources and services.